createdAt,value
2017-12-02T00:01:31.020Z,86.10
2017-12-02T00:03:59.309Z,86.00
2017-12-02T00:06:27.620Z,85.90
2017-12-02T00:08:55.908Z,85.70
2017-12-02T00:11:24.220Z,85.60
2017-12-02T00:13:52.503Z,85.50
2017-12-02T00:16:20.811Z,86.40
2017-12-02T00:18:49.105Z,85.90
2017-12-02T00:21:17.425Z,85.90
2017-12-02T00:23:45.707Z,86.00
2017-12-02T00:26:14.031Z,86.00
2017-12-02T00:28:42.320Z,86.10
2017-12-02T00:31:10.604Z,86.10
2017-12-02T00:33:38.912Z,86.30
2017-12-02T00:36:07.200Z,86.40
2017-12-02T00:38:35.508Z,86.90
2017-12-02T00:41:03.792Z,86.50
2017-12-02T00:43:32.095Z,86.40
2017-12-02T00:46:00.382Z,86.40
2017-12-02T00:48:28.683Z,87.20
2017-12-02T00:50:56.976Z,86.20
2017-12-02T00:53:25.281Z,86.20
2017-12-02T00:55:53.568Z,86.40
2017-12-02T00:58:21.879Z,86.50
2017-12-02T01:00:50.176Z,86.40
2017-12-02T01:03:18.484Z,86.40
2017-12-02T01:05:46.764Z,86.30
2017-12-02T01:08:15.075Z,86.30
2017-12-02T01:10:43.362Z,86.30
2017-12-02T01:13:11.668Z,86.30
2017-12-02T01:15:39.962Z,86.30
2017-12-02T01:18:08.273Z,86.30
2017-12-02T01:20:36.552Z,86.20
2017-12-02T01:23:04.859Z,86.20
2017-12-02T01:25:33.144Z,86.20
2017-12-02T01:28:01.457Z,86.10
2017-12-02T01:30:29.743Z,86.20
2017-12-02T01:32:58.052Z,87.20
2017-12-02T01:35:26.335Z,86.20
2017-12-02T01:37:54.649Z,86.40
2017-12-02T01:40:22.940Z,86.60
2017-12-02T01:42:51.252Z,86.60
2017-12-02T01:45:19.540Z,86.70
2017-12-02T01:47:47.849Z,86.70
2017-12-02T01:50:16.135Z,86.80
2017-12-02T01:52:44.443Z,86.90
2017-12-02T01:55:12.732Z,87.30
2017-12-02T01:57:41.036Z,87.60
2017-12-02T02:00:09.322Z,88.00
2017-12-02T02:02:37.629Z,88.10
2017-12-02T02:05:05.915Z,88.10
2017-12-02T02:07:34.223Z,87.90
2017-12-02T02:10:02.504Z,88.00
2017-12-02T02:12:30.791Z,87.90
2017-12-02T02:14:59.097Z,87.80
2017-12-02T02:17:27.384Z,87.70
2017-12-02T02:19:55.687Z,87.40
2017-12-02T02:22:23.988Z,87.30
2017-12-02T02:24:52.301Z,87.30
2017-12-02T02:27:20.588Z,87.20
2017-12-02T02:29:48.136Z,87.20
2017-12-02T02:32:16.420Z,86.80
2017-12-02T02:34:44.728Z,86.60
2017-12-02T02:37:13.021Z,86.50
2017-12-02T02:39:41.328Z,86.30
2017-12-02T02:42:09.607Z,86.10
2017-12-02T02:44:37.920Z,86.00
2017-12-02T02:47:06.200Z,86.10
2017-12-02T02:49:34.508Z,86.10
2017-12-02T02:52:02.805Z,85.90
2017-12-02T02:54:31.117Z,85.70
2017-12-02T02:56:59.412Z,85.50
2017-12-02T02:59:27.720Z,86.30
2017-12-02T03:01:56.008Z,85.10
2017-12-02T03:04:24.320Z,85.00
2017-12-02T03:06:52.612Z,85.00
2017-12-02T03:09:20.148Z,85.00
2017-12-02T03:11:48.438Z,84.60
2017-12-02T03:14:16.745Z,84.40
2017-12-02T03:16:45.032Z,84.30
2017-12-02T03:19:13.336Z,84.30
2017-12-02T03:21:41.627Z,84.50
2017-12-02T03:24:09.940Z,84.70
2017-12-02T03:26:38.225Z,85.00
2017-12-02T03:29:06.528Z,85.50
2017-12-02T03:31:34.811Z,85.60
2017-12-02T03:34:03.116Z,85.90
2017-12-02T03:36:31.408Z,86.00
2017-12-02T03:38:59.723Z,86.10
2017-12-02T03:41:28.016Z,86.30
2017-12-02T03:43:56.322Z,86.50
2017-12-02T03:46:24.600Z,86.60
2017-12-02T03:48:52.907Z,86.60
2017-12-02T03:51:21.196Z,86.90
2017-12-02T03:53:49.488Z,87.10
2017-12-02T03:56:17.792Z,87.20
2017-12-02T03:58:46.077Z,87.40
2017-12-02T04:01:14.391Z,87.50
2017-12-02T04:03:42.676Z,87.70
2017-12-02T04:06:10.987Z,87.70
2017-12-02T04:08:39.279Z,87.70
2017-12-02T04:11:07.593Z,87.60
2017-12-02T04:13:35.888Z,87.40
2017-12-02T04:16:04.195Z,87.30
2017-12-02T04:18:32.485Z,87.30
2017-12-02T04:21:00.792Z,87.20
2017-12-02T04:23:29.075Z,87.10
2017-12-02T04:25:57.388Z,87.00
2017-12-02T04:28:25.677Z,86.90
2017-12-02T04:30:53.997Z,86.90
2017-12-02T04:33:22.275Z,86.90
2017-12-02T04:35:50.589Z,86.70
2017-12-02T04:38:18.881Z,86.50
2017-12-02T04:40:47.188Z,86.50
2017-12-02T04:43:15.472Z,86.20
2017-12-02T04:45:43.781Z,86.10
2017-12-02T04:48:12.064Z,86.10
2017-12-02T04:50:40.373Z,86.00
2017-12-02T04:53:08.662Z,86.00
2017-12-02T04:55:36.968Z,85.80
2017-12-02T04:58:05.251Z,85.60
2017-12-02T05:00:33.560Z,85.40
2017-12-02T05:03:01.845Z,85.40
2017-12-02T05:05:30.149Z,85.20
2017-12-02T05:07:58.435Z,85.10
2017-12-02T05:10:26.749Z,85.00
2017-12-02T05:12:55.044Z,84.70
2017-12-02T05:15:22.584Z,84.80
2017-12-02T05:17:50.868Z,84.50
2017-12-02T05:20:19.177Z,84.10
2017-12-02T05:22:47.464Z,84.00
2017-12-02T05:25:15.784Z,84.00
2017-12-02T05:27:44.071Z,83.90
2017-12-02T05:30:12.352Z,83.90
2017-12-02T05:32:40.668Z,84.80
2017-12-02T05:35:08.947Z,83.60
2017-12-02T05:37:37.247Z,82.70
2017-12-02T05:40:05.536Z,83.50
2017-12-02T05:42:33.848Z,82.50
2017-12-02T05:45:02.137Z,82.40
2017-12-02T05:47:30.444Z,82.40
2017-12-02T05:49:58.733Z,82.30
2017-12-02T05:52:27.039Z,82.20
2017-12-02T05:54:55.332Z,82.10
2017-12-02T05:57:23.636Z,82.90
2017-12-02T05:59:51.918Z,82.20
2017-12-02T06:02:20.220Z,82.40
2017-12-02T06:04:48.504Z,82.50
2017-12-02T06:07:16.809Z,82.70
2017-12-02T06:09:45.096Z,83.40
2017-12-02T06:12:13.394Z,82.50
2017-12-02T06:14:41.681Z,82.40
2017-12-02T06:17:09.995Z,82.80
2017-12-02T06:19:38.275Z,83.10
2017-12-02T06:22:06.587Z,83.20
2017-12-02T06:24:34.880Z,83.30
2017-12-02T06:27:03.184Z,83.30
2017-12-02T06:29:31.468Z,83.40
2017-12-02T06:31:59.780Z,83.40
2017-12-02T06:34:28.064Z,83.20
2017-12-02T06:36:56.375Z,83.20
2017-12-02T06:39:24.664Z,83.30
2017-12-02T06:41:52.976Z,83.20
2017-12-02T06:44:21.264Z,82.80
2017-12-02T06:46:49.572Z,83.00
2017-12-02T06:49:17.851Z,82.80
2017-12-02T06:51:46.172Z,83.80
2017-12-02T06:54:14.455Z,83.10
2017-12-02T06:56:42.760Z,84.00
2017-12-02T06:59:11.057Z,83.30
2017-12-02T07:01:39.365Z,83.30
2017-12-02T07:04:07.651Z,83.30
2017-12-02T07:06:35.940Z,83.60
2017-12-02T07:09:04.267Z,83.90
2017-12-02T07:11:32.555Z,84.10
2017-12-02T07:14:00.873Z,84.30
2017-12-02T07:16:29.152Z,84.30
2017-12-02T07:18:57.462Z,84.40
2017-12-02T07:21:25.740Z,84.40
2017-12-02T07:23:54.040Z,84.50
2017-12-02T07:26:22.333Z,84.80
2017-12-02T07:28:50.635Z,85.00
2017-12-02T07:31:18.920Z,85.00
2017-12-02T07:33:47.227Z,85.20
2017-12-02T07:36:15.517Z,85.30
2017-12-02T07:38:43.817Z,85.40
2017-12-02T07:41:12.100Z,86.40
2017-12-02T07:43:40.409Z,85.60
2017-12-02T07:46:08.705Z,86.40
2017-12-02T07:48:37.012Z,85.50
2017-12-02T07:51:05.296Z,85.40
2017-12-02T07:53:33.600Z,85.20
2017-12-02T07:56:01.886Z,85.20
2017-12-02T07:58:30.191Z,85.10
2017-12-02T08:00:58.476Z,85.10
2017-12-02T08:03:26.785Z,85.10
2017-12-02T08:05:55.067Z,85.20
2017-12-02T08:08:23.371Z,85.30
2017-12-02T08:10:51.651Z,85.20
2017-12-02T08:13:19.957Z,85.20
2017-12-02T08:15:48.247Z,85.00
2017-12-02T08:18:16.556Z,85.10
2017-12-02T08:20:44.839Z,84.90
2017-12-02T08:23:13.152Z,84.80
2017-12-02T08:25:41.464Z,84.60
2017-12-02T08:28:09.777Z,84.40
2017-12-02T08:30:38.060Z,84.00
2017-12-02T08:33:06.368Z,83.80
2017-12-02T08:35:33.884Z,83.80
2017-12-02T08:38:02.180Z,83.60
2017-12-02T08:40:30.470Z,83.50
2017-12-02T08:42:58.777Z,83.50
2017-12-02T08:45:27.084Z,83.60
2017-12-02T08:47:55.376Z,83.70
2017-12-02T08:50:23.676Z,83.60
2017-12-02T08:52:51.967Z,84.40
2017-12-02T08:55:20.267Z,83.40
2017-12-02T08:57:48.556Z,83.30
2017-12-02T09:00:16.859Z,83.30
2017-12-02T09:02:45.139Z,83.30
2017-12-02T09:05:13.451Z,83.40
2017-12-02T09:07:41.736Z,83.30
2017-12-02T09:10:10.039Z,83.00
2017-12-02T09:12:38.348Z,82.90
2017-12-02T09:15:06.657Z,82.70
2017-12-02T09:17:34.939Z,82.20
2017-12-02T09:20:03.250Z,81.30
2017-12-02T09:22:31.540Z,81.20
2017-12-02T09:24:59.844Z,81.10
2017-12-02T09:27:28.132Z,81.10
2017-12-02T09:29:56.434Z,80.90
2017-12-02T09:32:24.722Z,80.40
2017-12-02T09:34:53.032Z,80.30
2017-12-02T09:37:21.311Z,80.10
2017-12-02T09:39:49.617Z,79.90
2017-12-02T09:42:17.900Z,79.40
2017-12-02T09:44:46.216Z,78.50
2017-12-02T09:47:14.500Z,78.10
2017-12-02T09:49:42.803Z,78.10
2017-12-02T09:52:11.080Z,77.50
2017-12-02T09:54:39.388Z,77.20
2017-12-02T09:57:07.676Z,77.20
2017-12-02T09:59:35.986Z,77.00
2017-12-02T10:02:04.277Z,76.60
2017-12-02T10:04:32.575Z,76.30
2017-12-02T10:07:00.860Z,75.70
2017-12-02T10:09:29.167Z,75.10
2017-12-02T10:11:57.452Z,74.50
2017-12-02T10:14:25.752Z,74.40
2017-12-02T10:16:54.036Z,74.30
2017-12-02T10:19:22.348Z,74.00
2017-12-02T10:21:50.635Z,73.60
2017-12-02T10:24:18.952Z,72.90
2017-12-02T10:26:47.236Z,72.80
2017-12-02T10:29:15.519Z,72.80
2017-12-02T10:31:43.826Z,72.90
2017-12-02T10:34:12.111Z,73.00
2017-12-02T10:36:40.416Z,72.70
2017-12-02T10:39:08.704Z,72.60
2017-12-02T10:41:37.010Z,72.30
2017-12-02T10:44:05.296Z,72.00
2017-12-02T10:46:33.603Z,72.00
2017-12-02T10:49:01.892Z,71.70
2017-12-02T10:51:30.199Z,70.80
2017-12-02T10:53:58.485Z,69.60
2017-12-02T10:56:26.787Z,69.70
2017-12-02T10:58:55.073Z,69.70
2017-12-02T11:01:23.384Z,69.50
2017-12-02T11:03:51.668Z,69.50
2017-12-02T11:06:19.996Z,68.80
2017-12-02T11:08:48.283Z,68.10
2017-12-02T11:11:16.588Z,68.50
2017-12-02T11:13:44.876Z,68.60
2017-12-02T11:16:13.191Z,68.40
2017-12-02T11:18:41.487Z,67.50
2017-12-02T11:21:09.792Z,66.50
2017-12-02T11:23:38.075Z,66.10
2017-12-02T11:26:06.387Z,66.40
2017-12-02T11:28:34.672Z,67.60
2017-12-02T11:31:02.210Z,67.60
2017-12-02T11:33:30.496Z,68.70
2017-12-02T11:35:58.799Z,69.40
2017-12-02T11:38:27.084Z,70.00
2017-12-02T11:40:55.392Z,70.50
2017-12-02T11:43:23.680Z,71.60
2017-12-02T11:45:51.988Z,72.20
2017-12-02T11:48:20.269Z,72.20
2017-12-02T11:50:48.576Z,72.00
2017-12-02T11:53:16.869Z,72.60
2017-12-02T11:55:45.176Z,72.10
2017-12-02T11:58:13.467Z,72.10
2017-12-02T12:00:41.801Z,73.30
2017-12-02T12:03:10.087Z,72.80
2017-12-02T12:05:38.378Z,72.80
2017-12-02T12:08:06.679Z,73.20
2017-12-02T12:10:34.964Z,73.10
2017-12-02T12:13:03.275Z,72.90
2017-12-02T12:15:31.568Z,73.10
2017-12-02T12:17:59.879Z,73.50
2017-12-02T12:20:28.168Z,73.80
2017-12-02T12:22:56.476Z,73.80
2017-12-02T12:25:24.764Z,73.70
2017-12-02T12:27:53.071Z,73.30
2017-12-02T12:30:21.355Z,73.60
2017-12-02T12:32:49.660Z,73.60
2017-12-02T12:35:17.949Z,73.80
2017-12-02T12:37:46.268Z,74.00
2017-12-02T12:40:14.556Z,74.00
2017-12-02T12:42:42.863Z,74.00
2017-12-02T12:45:11.201Z,73.50
2017-12-02T12:47:39.475Z,74.10
2017-12-02T12:50:07.765Z,74.20
2017-12-02T12:52:36.069Z,74.80
2017-12-02T12:55:04.364Z,75.00
2017-12-02T12:57:32.676Z,75.10
2017-12-02T13:00:00.197Z,75.10
2017-12-02T13:02:28.499Z,74.50
2017-12-02T13:04:56.784Z,74.70
2017-12-02T13:07:25.084Z,75.00
2017-12-02T13:09:53.367Z,75.50
2017-12-02T13:12:21.671Z,75.70
2017-12-02T13:14:49.956Z,76.00
2017-12-02T13:17:18.260Z,76.60
2017-12-02T13:19:46.549Z,77.00
2017-12-02T13:22:14.847Z,76.90
2017-12-02T13:24:43.140Z,76.90
2017-12-02T13:27:11.444Z,76.80
2017-12-02T13:29:39.734Z,76.90
2017-12-02T13:32:08.040Z,76.60
2017-12-02T13:34:36.319Z,76.60
2017-12-02T13:37:04.631Z,76.90
2017-12-02T13:39:32.915Z,77.00
2017-12-02T13:42:01.205Z,76.90
2017-12-02T13:44:29.512Z,76.80
2017-12-02T13:46:57.803Z,76.90
2017-12-02T13:49:26.108Z,76.90
2017-12-02T13:51:54.392Z,76.80
2017-12-02T13:54:22.696Z,77.20
2017-12-02T13:56:50.976Z,77.40
2017-12-02T13:59:19.276Z,77.10
2017-12-02T14:01:47.559Z,77.00
2017-12-02T14:04:15.868Z,77.00
2017-12-02T14:06:44.156Z,77.10
2017-12-02T14:09:12.465Z,77.10
2017-12-02T14:11:40.743Z,77.20
2017-12-02T14:14:09.055Z,77.10
2017-12-02T14:16:37.341Z,77.00
2017-12-02T14:19:05.645Z,76.60
2017-12-02T14:21:33.932Z,76.70
2017-12-02T14:24:02.244Z,76.60
2017-12-02T14:26:30.529Z,76.60
2017-12-02T14:28:58.831Z,76.60
2017-12-02T14:31:27.127Z,76.50
2017-12-02T14:33:55.432Z,76.70
2017-12-02T14:36:23.712Z,76.50
2017-12-02T14:38:52.011Z,76.60
2017-12-02T14:41:20.296Z,76.70
2017-12-02T14:43:48.595Z,76.80
2017-12-02T14:46:16.880Z,76.90
2017-12-02T14:48:45.204Z,76.80
2017-12-02T14:51:13.492Z,77.10
2017-12-02T14:53:41.800Z,77.20
2017-12-02T14:56:10.078Z,77.30
2017-12-02T14:58:38.390Z,76.60
2017-12-02T15:01:06.671Z,76.80
2017-12-02T15:03:34.212Z,76.70
2017-12-02T15:06:02.492Z,77.00
2017-12-02T15:08:30.792Z,76.90
2017-12-02T15:10:59.076Z,76.70
2017-12-02T15:13:27.384Z,77.20
2017-12-02T15:15:55.664Z,77.30
2017-12-02T15:18:23.952Z,77.40
2017-12-02T15:20:52.251Z,77.70
2017-12-02T15:23:20.535Z,77.60
2017-12-02T15:25:48.848Z,77.40
2017-12-02T15:28:17.136Z,77.30
2017-12-02T15:30:45.443Z,77.20
2017-12-02T15:33:13.753Z,77.30
2017-12-02T15:35:42.532Z,77.60
2017-12-02T15:38:10.816Z,77.70
2017-12-02T15:40:39.120Z,77.70
2017-12-02T15:43:07.408Z,77.60
2017-12-02T15:45:35.715Z,77.40
2017-12-02T15:48:04.001Z,77.50
2017-12-02T15:50:32.323Z,77.60
2017-12-02T15:53:00.608Z,77.50
2017-12-02T15:55:28.916Z,77.70
2017-12-02T15:57:57.208Z,77.60
2017-12-02T16:00:25.508Z,77.70
2017-12-02T16:02:53.793Z,77.90
2017-12-02T16:05:22.091Z,78.20
2017-12-02T16:07:50.371Z,78.10
2017-12-02T16:10:18.676Z,78.30
2017-12-02T16:12:46.959Z,77.80
2017-12-02T16:15:15.264Z,77.80
2017-12-02T16:17:43.543Z,77.80
2017-12-02T16:20:11.854Z,77.60
2017-12-02T16:22:40.144Z,77.70
2017-12-02T16:25:08.449Z,77.80
2017-12-02T16:27:36.740Z,77.90
2017-12-02T16:30:05.040Z,77.80
2017-12-02T16:32:33.324Z,77.90
2017-12-02T16:35:01.630Z,77.70
2017-12-02T16:37:29.912Z,77.50
2017-12-02T16:39:58.219Z,77.30
2017-12-02T16:42:26.508Z,77.20
2017-12-02T16:44:54.816Z,77.10
2017-12-02T16:47:23.103Z,77.40
2017-12-02T16:49:51.420Z,77.60
2017-12-02T16:52:19.707Z,77.10
2017-12-02T16:54:48.024Z,77.20
2017-12-02T16:57:16.316Z,76.90
2017-12-02T16:59:44.599Z,77.00
2017-12-02T17:02:12.896Z,77.20
2017-12-02T17:04:41.180Z,77.30
2017-12-02T17:07:09.482Z,77.10
2017-12-02T17:09:37.763Z,77.80
2017-12-02T17:12:06.077Z,77.10
2017-12-02T17:14:34.360Z,76.90
2017-12-02T17:17:02.732Z,77.20
2017-12-02T17:19:30.988Z,77.30
2017-12-02T17:21:59.293Z,77.40
2017-12-02T17:24:27.579Z,77.40
2017-12-02T17:26:55.880Z,77.40
2017-12-02T17:29:24.169Z,77.70
2017-12-02T17:31:52.477Z,77.80
2017-12-02T17:34:20.757Z,77.60
2017-12-02T17:36:49.064Z,78.40
2017-12-02T17:39:17.349Z,77.20
2017-12-02T17:41:45.657Z,77.20
2017-12-02T17:44:13.948Z,77.30
2017-12-02T17:46:42.256Z,77.20
2017-12-02T17:49:09.776Z,77.20
2017-12-02T17:51:38.086Z,77.50
2017-12-02T17:54:06.376Z,77.50
2017-12-02T17:56:34.680Z,77.30
2017-12-02T17:59:02.959Z,77.40
2017-12-02T18:01:31.265Z,77.50
2017-12-02T18:03:59.544Z,77.60
2017-12-02T18:06:27.843Z,77.70
2017-12-02T18:08:56.124Z,77.60
2017-12-02T18:11:24.432Z,77.60
2017-12-02T18:13:52.720Z,77.50
2017-12-02T18:16:21.020Z,77.60
2017-12-02T18:18:49.305Z,78.00
2017-12-02T18:21:17.603Z,78.10
2017-12-02T18:23:45.888Z,78.00
2017-12-02T18:26:14.196Z,77.70
2017-12-02T18:28:42.483Z,77.80
2017-12-02T18:31:10.796Z,77.70
2017-12-02T18:33:39.084Z,77.70
2017-12-02T18:36:07.372Z,77.70
2017-12-02T18:38:35.684Z,77.80
2017-12-02T18:41:03.968Z,77.90
2017-12-02T18:43:32.272Z,78.00
2017-12-02T18:46:00.560Z,78.20
2017-12-02T18:48:28.872Z,78.30
2017-12-02T18:50:57.151Z,78.20
2017-12-02T18:53:25.452Z,78.00
2017-12-02T18:55:53.744Z,78.00
2017-12-02T18:58:22.053Z,78.20
2017-12-02T19:00:50.345Z,78.60
2017-12-02T19:03:18.647Z,78.40
2017-12-02T19:05:46.923Z,78.40
2017-12-02T19:08:15.228Z,78.40
2017-12-02T19:10:43.511Z,78.30
2017-12-02T19:13:11.808Z,78.30
2017-12-02T19:15:40.100Z,78.10
2017-12-02T19:18:08.480Z,78.20
2017-12-02T19:20:36.773Z,78.40
2017-12-02T19:23:05.079Z,78.40
2017-12-02T19:25:33.371Z,78.50
2017-12-02T19:28:01.833Z,78.60
2017-12-02T19:30:30.114Z,79.00
2017-12-02T19:32:58.436Z,79.30
2017-12-02T19:35:26.716Z,79.20
2017-12-02T19:37:55.020Z,79.20
2017-12-02T19:40:23.307Z,79.20
2017-12-02T19:42:51.618Z,78.90
2017-12-02T19:45:19.912Z,78.60
2017-12-02T19:47:48.235Z,78.60
2017-12-02T19:50:16.523Z,78.70
2017-12-02T19:52:44.828Z,78.70
2017-12-02T19:55:13.120Z,78.80
2017-12-02T19:57:41.429Z,79.90
2017-12-02T20:00:09.745Z,79.90
2017-12-02T20:02:38.091Z,79.60
2017-12-02T20:05:06.380Z,79.60
2017-12-02T20:07:34.688Z,79.70
2017-12-02T20:10:02.980Z,79.80
2017-12-02T20:12:31.287Z,79.80
2017-12-02T20:14:59.571Z,79.50
2017-12-02T20:17:27.858Z,79.10
2017-12-02T20:19:56.164Z,78.90
2017-12-02T20:22:24.452Z,79.00
2017-12-02T20:24:52.756Z,79.00
2017-12-02T20:27:21.073Z,79.00
2017-12-02T20:29:49.376Z,79.10
2017-12-02T20:32:17.680Z,79.40
2017-12-02T20:34:45.980Z,79.40
2017-12-02T20:37:14.260Z,79.30
2017-12-02T20:39:42.563Z,78.90
2017-12-02T20:42:10.848Z,78.60
2017-12-02T20:44:39.161Z,78.50
2017-12-02T20:47:07.439Z,78.80
2017-12-02T20:49:35.757Z,78.80
2017-12-02T20:52:04.045Z,78.70
2017-12-02T20:54:32.356Z,78.90
2017-12-02T20:57:00.644Z,78.80
2017-12-02T20:59:28.960Z,78.90
2017-12-02T21:01:56.478Z,78.90
2017-12-02T21:04:24.792Z,79.60
2017-12-02T21:06:53.080Z,80.00
2017-12-02T21:09:21.391Z,79.90
2017-12-02T21:11:49.679Z,80.00
2017-12-02T21:14:17.992Z,79.90
2017-12-02T21:16:46.274Z,80.90
2017-12-02T21:19:14.705Z,80.10
2017-12-02T21:21:42.997Z,80.30
2017-12-02T21:24:11.307Z,80.50
2017-12-02T21:26:39.816Z,80.90
2017-12-02T21:29:08.134Z,81.20
2017-12-02T21:31:36.415Z,81.40
2017-12-02T21:34:04.719Z,81.40
2017-12-02T21:36:33.003Z,81.20
2017-12-02T21:39:01.322Z,81.20
2017-12-02T21:41:29.607Z,81.10
2017-12-02T21:43:57.917Z,80.70
2017-12-02T21:46:26.204Z,80.70
2017-12-02T21:48:54.511Z,80.80
2017-12-02T21:51:22.855Z,81.00
2017-12-02T21:53:51.116Z,81.30
2017-12-02T21:56:19.419Z,82.00
2017-12-02T21:58:47.712Z,81.10
2017-12-02T22:01:16.024Z,81.10
2017-12-02T22:03:44.312Z,81.10
2017-12-02T22:06:12.620Z,82.10
2017-12-02T22:08:40.908Z,81.40
2017-12-02T22:11:09.219Z,81.60
2017-12-02T22:13:37.510Z,81.80
2017-12-02T22:16:05.822Z,81.70
2017-12-02T22:18:34.108Z,81.80
2017-12-02T22:21:02.416Z,81.90
2017-12-02T22:23:30.706Z,82.10
2017-12-02T22:25:59.016Z,82.10
2017-12-02T22:28:27.307Z,82.10
2017-12-02T22:30:55.616Z,82.20
2017-12-02T22:33:23.904Z,82.20
2017-12-02T22:35:52.211Z,82.20
2017-12-02T22:38:20.499Z,82.80
2017-12-02T22:40:48.802Z,82.10
2017-12-02T22:43:17.087Z,81.10
2017-12-02T22:45:45.393Z,80.90
2017-12-02T22:48:13.684Z,80.70
2017-12-02T22:50:41.997Z,80.20
2017-12-02T22:53:10.289Z,79.90
2017-12-02T22:55:38.596Z,80.50
2017-12-02T22:58:06.895Z,79.40
2017-12-02T23:00:39.992Z,79.20
2017-12-02T23:03:08.279Z,78.80
2017-12-02T23:05:36.592Z,78.90
2017-12-02T23:08:04.886Z,78.80
2017-12-02T23:10:33.200Z,78.80
2017-12-02T23:13:01.492Z,78.70
2017-12-02T23:15:29.796Z,78.70
2017-12-02T23:17:58.079Z,78.60
2017-12-02T23:20:26.396Z,78.50
2017-12-02T23:22:54.684Z,78.00
2017-12-02T23:25:23.011Z,78.10
2017-12-02T23:27:51.295Z,78.30
2017-12-02T23:30:19.583Z,78.40
2017-12-02T23:32:47.894Z,78.40
2017-12-02T23:35:16.180Z,78.30
2017-12-02T23:37:44.488Z,78.30
2017-12-02T23:40:12.775Z,78.20
2017-12-02T23:42:41.143Z,78.70
2017-12-02T23:45:09.428Z,78.90
2017-12-02T23:47:37.718Z,79.10
2017-12-02T23:50:06.019Z,79.20
2017-12-02T23:52:34.315Z,78.80
2017-12-02T23:55:02.627Z,78.50
2017-12-02T23:57:30.916Z,78.20
2017-12-02T23:59:59.247Z,78.20
